createdAt,value
2022-11-09T06:31:10.587Z,22.51
2022-11-09T06:33:39.780Z,22.46
2022-11-09T06:36:08.417Z,22.44
2022-11-09T06:38:39.862Z,22.42
2022-11-09T06:41:07.372Z,22.41
2022-11-09T06:43:34.743Z,22.39
2022-11-09T06:46:06.006Z,22.39
2022-11-09T06:48:33.912Z,22.37
2022-11-09T06:51:02.783Z,22.37
2022-11-09T06:53:31.583Z,22.41
2022-11-09T06:56:01.142Z,22.42
2022-11-09T06:58:29.744Z,22.42
2022-11-09T07:00:57.961Z,22.43
2022-11-09T07:03:26.245Z,22.44
2022-11-09T07:05:54.033Z,22.43
2022-11-09T07:08:21.188Z,22.43
2022-11-09T07:10:48.614Z,22.41
2022-11-09T07:13:16.330Z,22.39
2022-11-09T07:15:43.622Z,22.38
2022-11-09T07:18:13.623Z,22.36
2022-11-09T07:20:41.240Z,22.36
2022-11-09T07:23:08.365Z,22.34
2022-11-09T07:25:36.681Z,22.34
2022-11-09T07:28:09.161Z,22.35
2022-11-09T07:30:37.448Z,22.41
2022-11-09T07:33:12.507Z,22.42
2022-11-09T07:35:39.896Z,22.43
2022-11-09T07:38:07.883Z,22.44
2022-11-09T07:40:35.716Z,22.46
2022-11-09T07:43:05.393Z,22.47
2022-11-09T07:45:34.931Z,22.46
2022-11-09T07:48:05.515Z,22.46
2022-11-09T07:50:34.613Z,22.45
2022-11-09T07:53:03.031Z,22.45
2022-11-09T07:55:31.778Z,22.44
2022-11-09T07:58:00.966Z,22.44
2022-11-09T08:00:31.039Z,22.42
2022-11-09T08:02:58.917Z,22.41
2022-11-09T08:05:26.437Z,22.39
2022-11-09T08:08:03.348Z,22.39
2022-11-09T08:10:32.153Z,22.44
2022-11-09T08:13:01.832Z,22.45
2022-11-09T08:15:30.093Z,22.46
2022-11-09T08:18:06.836Z,22.47
2022-11-09T08:20:34.815Z,22.49
2022-11-09T08:23:04.682Z,22.49
2022-11-09T08:25:39.198Z,22.49
2022-11-09T08:28:09.591Z,22.49
2022-11-09T08:30:40.887Z,22.49
2022-11-09T08:33:08.969Z,22.49
2022-11-09T08:35:36.326Z,22.47
2022-11-09T08:38:05.906Z,22.46
2022-11-09T08:40:34.449Z,22.47
2022-11-09T08:43:05.346Z,22.51
2022-11-09T08:45:34.561Z,22.51
2022-11-09T08:48:02.710Z,22.51
2022-11-09T08:50:31.185Z,22.51
2022-11-09T08:52:58.807Z,22.52
2022-11-09T08:55:26.046Z,22.52
2022-11-09T08:57:58.302Z,22.52
2022-11-09T09:00:26.772Z,22.52
2022-11-09T09:02:54.201Z,22.52
2022-11-09T09:05:22.049Z,22.51
2022-11-09T09:07:49.458Z,22.50
2022-11-09T09:10:16.804Z,22.50
2022-11-09T09:12:44.200Z,22.49
2022-11-09T09:15:11.723Z,22.50
2022-11-09T09:17:39.407Z,22.54
2022-11-09T09:20:06.988Z,22.55
2022-11-09T09:22:34.482Z,22.56
2022-11-09T09:25:01.998Z,22.56
2022-11-09T09:27:32.390Z,22.56
2022-11-09T09:29:59.598Z,22.56
2022-11-09T09:32:27.188Z,22.56
2022-11-09T09:34:54.693Z,22.56
2022-11-09T09:37:22.535Z,22.56
2022-11-09T09:39:50.041Z,22.55
2022-11-09T09:42:23.096Z,22.54
2022-11-09T09:44:58.811Z,22.53
2022-11-09T09:47:37.253Z,22.53
2022-11-09T09:50:19.312Z,22.51
2022-11-09T09:53:17.738Z,22.52
2022-11-09T09:55:44.412Z,22.56
2022-11-09T09:58:18.734Z,22.56
2022-11-09T10:00:46.361Z,22.56
2022-11-09T10:03:20.231Z,22.57
2022-11-09T10:05:56.341Z,22.57
2022-11-09T10:08:52.869Z,22.56
2022-11-09T10:11:19.934Z,22.56
2022-11-09T10:14:16.789Z,22.56
2022-11-09T10:17:23.304Z,22.54
2022-11-09T10:19:56.261Z,22.54
2022-11-09T10:22:50.501Z,22.54
2022-11-09T10:25:50.418Z,22.52
2022-11-09T10:28:16.665Z,22.53
2022-11-09T10:30:44.230Z,22.56
2022-11-09T10:33:11.330Z,22.56
2022-11-09T10:35:45.761Z,22.55
2022-11-09T10:38:19.063Z,22.54
2022-11-09T10:40:54.883Z,22.54
2022-11-09T10:43:40.581Z,22.52
2022-11-09T10:46:26.564Z,22.51
2022-11-09T10:49:21.879Z,22.51
2022-11-09T10:52:45.936Z,22.49
2022-11-09T10:55:37.328Z,22.49
2022-11-09T10:58:32.510Z,22.48
2022-11-09T11:01:36.518Z,22.48
2022-11-09T11:04:25.738Z,22.52
2022-11-09T11:07:21.290Z,22.52
2022-11-09T11:10:17.346Z,22.50
2022-11-09T11:13:02.715Z,22.50
2022-11-09T11:15:48.587Z,22.49
2022-11-09T11:18:36.892Z,22.48
2022-11-09T11:21:25.612Z,22.48
2022-11-09T11:24:21.501Z,22.47
2022-11-09T11:27:17.131Z,22.45
2022-11-09T11:30:13.643Z,22.44
2022-11-09T11:32:59.823Z,22.44
2022-11-09T11:36:12.493Z,22.45
2022-11-09T11:39:11.391Z,22.49
2022-11-09T11:42:39.612Z,22.49
2022-11-09T11:45:41.694Z,22.48
2022-11-09T11:48:58.183Z,22.47
2022-11-09T11:52:08.716Z,22.46
2022-11-09T11:55:32.228Z,22.45
2022-11-09T11:58:31.276Z,22.44
2022-11-09T12:01:26.232Z,22.44
2022-11-09T12:04:49.524Z,22.43
2022-11-09T12:07:59.092Z,22.46
2022-11-09T12:10:50.662Z,22.49
2022-11-09T12:13:54.965Z,22.49
2022-11-09T12:16:52.268Z,22.50
2022-11-09T12:20:12.130Z,22.50
2022-11-09T12:23:17.837Z,22.50
2022-11-09T12:26:44.731Z,22.48
2022-11-09T12:29:45.050Z,22.45
2022-11-09T12:32:44.783Z,22.42
2022-11-09T12:35:41.401Z,22.40
2022-11-09T12:38:51.660Z,22.41
2022-11-09T12:41:39.891Z,22.45
2022-11-09T12:44:33.583Z,22.45
2022-11-09T12:47:27.603Z,22.45
2022-11-09T12:50:20.591Z,22.45
2022-11-09T12:53:07.612Z,22.44
2022-11-09T12:56:05.343Z,22.44
2022-11-09T12:58:53.924Z,22.43
2022-11-09T13:01:39.922Z,22.42
2022-11-09T13:04:26.280Z,22.42
2022-11-09T13:07:19.318Z,22.42
2022-11-09T13:10:05.628Z,22.44
2022-11-09T13:13:18.567Z,22.49
2022-11-09T13:16:10.661Z,22.49
2022-11-09T13:18:56.302Z,22.50
2022-11-09T13:21:42.107Z,22.52
2022-11-09T13:24:30.952Z,22.52
2022-11-09T13:27:35.253Z,22.52
2022-11-09T13:30:28.558Z,22.51
2022-11-09T13:33:23.278Z,22.51
2022-11-09T13:36:09.230Z,22.50
2022-11-09T13:39:24.026Z,22.48
2022-11-09T13:42:39.610Z,22.46
2022-11-09T13:45:30.844Z,22.44
2022-11-09T13:48:41.507Z,22.45
2022-11-09T13:51:33.811Z,22.43
2022-11-09T13:54:44.417Z,22.41
2022-11-09T13:57:33.242Z,22.41
2022-11-09T14:00:25.648Z,22.39
2022-11-09T14:03:25.021Z,22.38
2022-11-09T14:06:13.737Z,22.37
2022-11-09T14:09:01.531Z,22.36
2022-11-09T14:12:01.932Z,22.37
2022-11-09T14:15:17.647Z,22.42
2022-11-09T14:18:12.815Z,22.43
2022-11-09T14:21:35.672Z,22.45
2022-11-09T14:24:29.744Z,22.46
2022-11-09T14:27:23.270Z,22.45
2022-11-09T14:30:22.570Z,22.44
2022-11-09T14:33:22.268Z,22.43
2022-11-09T14:36:12.243Z,22.42
2022-11-09T14:39:00.640Z,22.42
2022-11-09T14:41:46.479Z,22.41
2022-11-09T14:44:40.714Z,22.42
2022-11-09T14:47:33.217Z,22.47
2022-11-09T14:50:28.349Z,22.49
2022-11-09T14:53:33.562Z,22.49
2022-11-09T14:56:22.413Z,22.49
2022-11-09T14:59:13.233Z,22.49
2022-11-09T15:02:10.239Z,22.49
2022-11-09T15:05:02.062Z,22.49
2022-11-09T15:07:49.106Z,22.49
2022-11-09T15:10:35.673Z,22.48
2022-11-09T15:13:40.638Z,22.47
2022-11-09T15:16:32.070Z,22.46
2022-11-09T15:19:40.777Z,22.46
2022-11-09T15:22:48.901Z,22.48
2022-11-09T15:25:52.884Z,22.47
2022-11-09T15:28:46.639Z,22.47
2022-11-09T15:31:32.864Z,22.47
2022-11-09T15:34:23.808Z,22.46
2022-11-09T15:37:23.434Z,22.44
2022-11-09T15:40:13.777Z,22.42
2022-11-09T15:42:59.915Z,22.42
2022-11-09T15:45:46.095Z,22.41
2022-11-09T15:48:33.416Z,22.42
2022-11-09T15:51:20.371Z,22.46
2022-11-09T15:54:06.846Z,22.47
2022-11-09T15:56:53.764Z,22.47
2022-11-09T15:59:39.906Z,22.47
2022-11-09T16:02:26.556Z,22.48
2022-11-09T16:05:14.291Z,22.48
2022-11-09T16:08:00.483Z,22.47
2022-11-09T16:10:46.727Z,22.46
2022-11-09T16:13:33.026Z,22.45
2022-11-09T16:16:21.518Z,22.47
2022-11-09T16:19:07.607Z,22.47
2022-11-09T16:21:54.666Z,22.47
2022-11-09T16:24:41.033Z,22.47
2022-11-09T16:27:49.040Z,22.47
2022-11-09T16:30:34.487Z,22.46
2022-11-09T16:33:22.084Z,22.45
2022-11-09T16:36:25.926Z,22.44
2022-11-09T16:39:18.867Z,22.42
2022-11-09T16:42:10.786Z,22.42
2022-11-09T16:45:04.232Z,22.44
2022-11-09T16:47:56.800Z,22.43
2022-11-09T16:50:43.303Z,22.43
2022-11-09T16:53:29.913Z,22.44
2022-11-09T16:56:17.521Z,22.45
2022-11-09T16:59:03.875Z,22.45
2022-11-09T17:01:55.219Z,22.45
2022-11-09T17:04:42.263Z,22.45
2022-11-09T17:07:32.214Z,22.43
2022-11-09T17:10:18.026Z,22.42
2022-11-09T17:13:05.046Z,22.46
2022-11-09T17:15:53.917Z,22.45
2022-11-09T17:18:41.524Z,22.45
2022-11-09T17:21:29.469Z,22.45
2022-11-09T17:24:15.302Z,22.45
2022-11-09T17:27:01.545Z,22.45
2022-11-09T17:29:47.812Z,22.45
2022-11-09T17:32:34.866Z,22.44
2022-11-09T17:35:21.982Z,22.43
2022-11-09T17:38:08.153Z,22.42
2022-11-09T17:40:54.851Z,22.41
2022-11-09T17:43:42.920Z,22.43
2022-11-09T17:46:29.456Z,22.44
2022-11-09T17:49:15.397Z,22.43
2022-11-09T17:52:01.550Z,22.42
2022-11-09T17:54:47.846Z,22.40
2022-11-09T17:57:34.449Z,22.39
2022-11-09T18:00:21.736Z,22.39
2022-11-09T18:03:07.511Z,22.39
2022-11-09T18:05:54.343Z,22.38
2022-11-09T18:08:41.489Z,22.36
2022-11-09T18:11:30.803Z,22.36
2022-11-09T18:14:17.449Z,22.38
2022-11-09T18:17:03.898Z,22.37
2022-11-09T18:19:50.087Z,22.36
2022-11-09T18:22:36.028Z,22.36
2022-11-09T18:25:22.522Z,22.36
2022-11-09T18:28:11.397Z,22.36
2022-11-09T18:31:13.799Z,22.35
2022-11-09T18:34:00.174Z,22.33
2022-11-09T18:36:48.011Z,22.31
2022-11-09T18:39:34.184Z,22.29
2022-11-09T18:42:19.969Z,22.28
2022-11-09T18:45:06.892Z,22.31
2022-11-09T18:47:53.489Z,22.30
2022-11-09T18:50:39.689Z,22.30
2022-11-09T18:53:34.008Z,22.31
2022-11-09T18:56:24.973Z,22.32
2022-11-09T18:59:12.603Z,22.34
2022-11-09T19:01:59.247Z,22.34
2022-11-09T19:04:45.344Z,22.35
2022-11-09T19:07:31.504Z,22.34
2022-11-09T19:10:20.552Z,22.32
2022-11-09T19:13:07.205Z,22.32
2022-11-09T19:15:58.184Z,22.36
2022-11-09T19:18:46.093Z,22.35
2022-11-09T19:21:40.630Z,22.36
2022-11-09T19:24:29.245Z,22.36
2022-11-09T19:27:16.949Z,22.35
2022-11-09T19:30:08.974Z,22.34
2022-11-09T19:32:55.257Z,22.33
2022-11-09T19:36:08.053Z,22.32
2022-11-09T19:38:56.672Z,22.31
2022-11-09T19:41:43.527Z,22.29
2022-11-09T19:44:29.832Z,22.27
2022-11-09T19:47:15.815Z,22.27
2022-11-09T19:50:01.932Z,22.30
2022-11-09T19:52:47.686Z,22.30
2022-11-09T19:55:34.040Z,22.29
2022-11-09T19:58:21.937Z,22.28
2022-11-09T20:01:11.594Z,22.26
2022-11-09T20:04:00.702Z,22.25
2022-11-09T20:06:46.536Z,22.24
2022-11-09T20:09:33.153Z,22.23
2022-11-09T20:12:37.796Z,22.23
2022-11-09T20:15:24.046Z,22.23
2022-11-09T20:18:09.684Z,22.25
2022-11-09T20:20:56.796Z,22.30
2022-11-09T20:23:42.797Z,22.31
2022-11-09T20:26:28.474Z,22.32
2022-11-09T20:29:14.378Z,22.33
2022-11-09T20:32:00.249Z,22.34
2022-11-09T20:34:46.355Z,22.34
2022-11-09T20:37:33.493Z,22.33
2022-11-09T20:40:19.879Z,22.32
2022-11-09T20:43:06.624Z,22.31
2022-11-09T20:45:54.221Z,22.29
2022-11-09T20:48:53.907Z,22.28
2022-11-09T20:51:41.158Z,22.29
2022-11-09T20:54:27.293Z,22.32
2022-11-09T20:57:13.737Z,22.32
2022-11-09T21:00:00.411Z,22.33
2022-11-09T21:02:47.092Z,22.33
2022-11-09T21:05:33.976Z,22.33
2022-11-09T21:08:20.436Z,22.33
2022-11-09T21:11:09.275Z,22.32
2022-11-09T21:13:56.204Z,22.31
2022-11-09T21:16:42.196Z,22.31
2022-11-09T21:19:29.495Z,22.28
2022-11-09T21:22:15.984Z,22.28
2022-11-09T21:25:20.188Z,22.30
2022-11-09T21:28:24.558Z,22.30
2022-11-09T21:31:12.149Z,22.31
2022-11-09T21:33:58.187Z,22.31
2022-11-09T21:36:44.950Z,22.31
2022-11-09T21:39:30.934Z,22.31
2022-11-09T21:42:16.952Z,22.29
2022-11-09T21:45:03.815Z,22.28
2022-11-09T21:47:50.337Z,22.27
2022-11-09T21:50:36.324Z,22.25
2022-11-09T21:53:24.415Z,22.26
2022-11-09T21:56:10.774Z,22.28
2022-11-09T21:58:56.480Z,22.28
2022-11-09T22:01:42.601Z,22.29
2022-11-09T22:04:28.495Z,22.30
2022-11-09T22:07:14.362Z,22.31
2022-11-09T22:10:15.707Z,22.32
2022-11-09T22:13:20.606Z,22.32
2022-11-09T22:16:09.789Z,22.31
2022-11-09T22:19:14.707Z,22.31
2022-11-09T22:22:01.035Z,22.32
2022-11-09T22:24:47.032Z,22.36
2022-11-09T22:27:33.341Z,22.35
2022-11-09T22:30:19.579Z,22.37
2022-11-09T22:33:06.130Z,22.38
2022-11-09T22:36:00.861Z,22.39
2022-11-09T22:38:46.836Z,22.38
2022-11-09T22:41:33.345Z,22.38
2022-11-09T22:44:19.594Z,22.37
2022-11-09T22:47:06.009Z,22.35
2022-11-09T22:49:51.938Z,22.37
2022-11-09T22:52:37.653Z,22.40
2022-11-09T22:55:24.622Z,22.40
2022-11-09T22:58:11.339Z,22.40
2022-11-09T23:01:08.705Z,22.40
2022-11-09T23:03:54.985Z,22.41
2022-11-09T23:06:40.947Z,22.41
2022-11-09T23:09:27.452Z,22.41
2022-11-09T23:12:13.567Z,22.39
2022-11-09T23:15:05.805Z,22.38
2022-11-09T23:18:12.559Z,22.38
2022-11-09T23:21:01.119Z,22.38
2022-11-09T23:23:49.295Z,22.40
2022-11-09T23:26:36.072Z,22.39
2022-11-09T23:29:22.224Z,22.39
2022-11-09T23:32:08.091Z,22.38
2022-11-09T23:34:54.540Z,22.38
2022-11-09T23:37:40.685Z,22.38
2022-11-09T23:40:27.039Z,22.37
2022-11-09T23:43:14.635Z,22.36
2022-11-09T23:46:03.164Z,22.34
2022-11-09T23:48:48.901Z,22.33
2022-11-09T23:51:35.440Z,22.32
2022-11-09T23:54:21.283Z,22.36
2022-11-09T23:57:07.227Z,22.36
2022-11-09T23:59:53.241Z,22.37
